createdAt,value
2023-04-02T00:02:21.511Z,101253.44
2023-04-02T00:05:30.238Z,101253.50
2023-04-02T00:08:25.033Z,101260.59
2023-04-02T00:10:54.664Z,101257.25
2023-04-02T00:13:49.006Z,101258.06
2023-04-02T00:16:22.020Z,101259.78
2023-04-02T00:18:55.717Z,101269.19
2023-04-02T00:21:26.322Z,101266.75
2023-04-02T00:23:59.001Z,101273.72
2023-04-02T00:26:43.966Z,101272.19
2023-04-02T00:29:13.001Z,101279.84
2023-04-02T00:31:43.054Z,101277.25
2023-04-02T00:34:18.456Z,101287.69
2023-04-02T00:36:46.650Z,101285.09
2023-04-02T00:39:20.366Z,101294.41
2023-04-02T00:41:47.152Z,101298.72
2023-04-02T00:44:15.825Z,101303.88
2023-04-02T00:46:46.967Z,101316.94
2023-04-02T00:49:32.563Z,101318.59
2023-04-02T00:52:06.375Z,101316.97
2023-04-02T00:54:39.990Z,101331.59
2023-04-02T00:57:16.103Z,101329.97
2023-04-02T01:00:03.037Z,101333.38
2023-04-02T01:02:32.387Z,101342.00
2023-04-02T01:05:02.366Z,101350.72
2023-04-02T01:07:54.977Z,101351.53
2023-04-02T01:10:46.122Z,101355.00
2023-04-02T01:13:37.856Z,101361.06
2023-04-02T01:16:21.658Z,101363.78
2023-04-02T01:19:04.371Z,101374.91
2023-04-02T01:21:42.533Z,101376.59
2023-04-02T01:24:15.110Z,101380.16
2023-04-02T01:26:57.604Z,101383.66
2023-04-02T01:29:33.384Z,101388.91
2023-04-02T01:32:10.732Z,101389.78
2023-04-02T01:34:37.955Z,101394.97
2023-04-02T01:37:13.396Z,101403.69
2023-04-02T01:39:47.681Z,101403.72
2023-04-02T01:42:34.302Z,101411.66
2023-04-02T01:45:14.028Z,101403.97
2023-04-02T01:47:42.689Z,101410.09
2023-04-02T01:50:32.280Z,101419.44
2023-04-02T01:53:05.099Z,101416.97
2023-04-02T01:55:48.790Z,101421.34
2023-04-02T01:58:20.103Z,101442.03
2023-04-02T02:00:56.454Z,101440.38
2023-04-02T02:03:23.320Z,101444.69
2023-04-02T02:05:50.760Z,101442.13
2023-04-02T02:08:29.067Z,101458.47
2023-04-02T02:10:56.443Z,101454.13
2023-04-02T02:13:23.124Z,101460.19
2023-04-02T02:15:50.417Z,101463.69
2023-04-02T02:18:23.180Z,101472.25
2023-04-02T02:20:52.167Z,101471.44
2023-04-02T02:23:20.931Z,101477.41
2023-04-02T02:25:48.134Z,101484.31
2023-04-02T02:28:19.162Z,101481.81
2023-04-02T02:30:57.748Z,101484.56
2023-04-02T02:33:32.605Z,101499.44
2023-04-02T02:36:20.643Z,101503.03
2023-04-02T02:38:55.688Z,101504.06
2023-04-02T02:41:39.775Z,101512.78
2023-04-02T02:44:08.890Z,101511.16
2023-04-02T02:46:44.919Z,101517.22
2023-04-02T02:49:22.252Z,101522.41
2023-04-02T02:51:57.554Z,101534.59
2023-04-02T02:54:26.325Z,101534.66
2023-04-02T02:57:00.678Z,101544.91
2023-04-02T02:59:29.848Z,101547.56
2023-04-02T03:01:57.008Z,101557.97
2023-04-02T03:04:24.481Z,101558.84
2023-04-02T03:06:53.218Z,101570.00
2023-04-02T03:09:48.190Z,101574.22
2023-04-02T03:12:28.290Z,101581.03
2023-04-02T03:15:07.544Z,101579.38
2023-04-02T03:17:45.982Z,101582.09
2023-04-02T03:20:31.203Z,101586.50
2023-04-02T03:23:03.759Z,101595.88
2023-04-02T03:25:41.485Z,101597.53
2023-04-02T03:28:16.993Z,101607.03
2023-04-02T03:30:52.970Z,101605.31
2023-04-02T03:33:38.205Z,101618.22
2023-04-02T03:36:33.651Z,101625.13
2023-04-02T03:39:17.301Z,101628.56
2023-04-02T03:41:50.385Z,101629.44
2023-04-02T03:44:28.728Z,101645.78
2023-04-02T03:47:01.493Z,101646.84
2023-04-02T03:49:46.485Z,101655.44
2023-04-02T03:52:39.514Z,101659.75
2023-04-02T03:55:32.320Z,101661.44
2023-04-02T03:58:10.006Z,101664.00
2023-04-02T04:00:43.838Z,101671.75
2023-04-02T04:03:18.098Z,101679.50
2023-04-02T04:05:49.928Z,101687.22
2023-04-02T04:08:26.374Z,101684.66
2023-04-02T04:10:57.065Z,101688.97
2023-04-02T04:13:34.946Z,101695.03
2023-04-02T04:16:07.901Z,101701.88
2023-04-02T04:18:51.804Z,101710.44
2023-04-02T04:21:37.110Z,101719.19
2023-04-02T04:24:17.317Z,101720.19
2023-04-02T04:26:49.640Z,101728.84
2023-04-02T04:29:32.024Z,101733.22
2023-04-02T04:32:27.139Z,101737.63
2023-04-02T04:35:01.075Z,101747.94
2023-04-02T04:37:35.148Z,101760.91
2023-04-02T04:40:44.881Z,101757.56
2023-04-02T04:43:20.416Z,101758.53
2023-04-02T04:46:03.389Z,101774.88
2023-04-02T04:48:36.682Z,101774.06
2023-04-02T04:51:27.100Z,101783.59
2023-04-02T04:53:55.740Z,101788.75
2023-04-02T04:56:26.708Z,101790.47
2023-04-02T04:59:00.908Z,101793.91
2023-04-02T05:01:44.236Z,101805.97
2023-04-02T05:04:20.626Z,101804.22
2023-04-02T05:06:55.646Z,101810.16
2023-04-02T05:09:33.185Z,101818.78
2023-04-02T05:12:08.330Z,101829.22
2023-04-02T05:14:44.548Z,101837.00
2023-04-02T05:17:23.662Z,101843.09
2023-04-02T05:20:00.441Z,101859.56
2023-04-02T05:22:41.335Z,101864.75
2023-04-02T05:25:18.249Z,101870.78
2023-04-02T05:28:03.701Z,101864.84
2023-04-02T05:30:38.516Z,101870.06
2023-04-02T05:33:15.770Z,101885.53
2023-04-02T05:35:46.675Z,101886.41
2023-04-02T05:38:26.553Z,101896.72
2023-04-02T05:41:07.686Z,101906.13
2023-04-02T05:43:37.111Z,101907.03
2023-04-02T05:46:17.451Z,101915.66
2023-04-02T05:48:48.587Z,101905.44
2023-04-02T05:51:20.901Z,101927.72
2023-04-02T05:53:54.991Z,101923.44
2023-04-02T05:56:33.171Z,101931.16
2023-04-02T05:59:13.719Z,101942.28
2023-04-02T06:01:49.621Z,101944.94
2023-04-02T06:04:43.729Z,101948.38
2023-04-02T06:07:15.776Z,101948.38
2023-04-02T06:09:48.891Z,101968.91
2023-04-02T06:12:27.418Z,101974.06
2023-04-02T06:14:53.970Z,101986.06
2023-04-02T06:17:21.133Z,101995.50
2023-04-02T06:19:48.413Z,101998.97
2023-04-02T06:22:23.139Z,102001.53
2023-04-02T06:24:56.222Z,102008.38
2023-04-02T06:27:25.209Z,102010.09
2023-04-02T06:29:55.638Z,102020.38
2023-04-02T06:32:26.865Z,102022.97
2023-04-02T06:34:53.626Z,102031.53
2023-04-02T06:37:22.708Z,102024.69
2023-04-02T06:39:49.228Z,102035.81
2023-04-02T06:42:37.536Z,102045.25
2023-04-02T06:45:05.350Z,102042.69
2023-04-02T06:47:42.439Z,102048.69
2023-04-02T06:50:27.846Z,102046.97
2023-04-02T06:52:57.907Z,102055.56
2023-04-02T06:55:50.970Z,102058.13
2023-04-02T06:58:18.596Z,102067.53
2023-04-02T07:00:47.103Z,102070.09
2023-04-02T07:03:33.922Z,102080.38
2023-04-02T07:06:02.577Z,102092.38
2023-04-02T07:08:29.041Z,102095.00
2023-04-02T07:10:56.315Z,102091.53
2023-04-02T07:13:23.721Z,102109.56
2023-04-02T07:15:53.608Z,102110.44
2023-04-02T07:18:27.335Z,102121.59
2023-04-02T07:20:53.845Z,102117.31
2023-04-02T07:23:21.168Z,102120.72
2023-04-02T07:25:52.918Z,102131.00
2023-04-02T07:28:21.988Z,102135.28
2023-04-02T07:30:49.448Z,102145.63
2023-04-02T07:33:18.278Z,102162.78
2023-04-02T07:35:44.949Z,102158.47
2023-04-02T07:38:11.555Z,102161.06
2023-04-02T07:40:38.063Z,102159.31
2023-04-02T07:43:05.343Z,102166.22
2023-04-02T07:45:31.943Z,102173.06
2023-04-02T07:48:03.919Z,102170.50
2023-04-02T07:50:30.597Z,102171.34
2023-04-02T07:52:57.020Z,102174.78
2023-04-02T07:55:23.444Z,102184.22
2023-04-02T07:57:55.079Z,102184.22
2023-04-02T08:00:24.256Z,102185.09
2023-04-02T08:02:51.189Z,102195.38
2023-04-02T08:05:17.994Z,102195.38
2023-04-02T08:07:51.954Z,102199.69
2023-04-02T08:10:19.183Z,102199.66
2023-04-02T08:12:45.763Z,102204.81
2023-04-02T08:15:16.058Z,102210.81
2023-04-02T08:17:43.310Z,102212.53
2023-04-02T08:20:19.039Z,102217.69
2023-04-02T08:22:49.378Z,102222.81
2023-04-02T08:25:16.636Z,102225.41
2023-04-02T08:27:43.206Z,102228.00
2023-04-02T08:30:13.022Z,102235.72
2023-04-02T08:32:43.095Z,102245.13
2023-04-02T08:35:11.564Z,102258.03
2023-04-02T08:37:38.437Z,102262.31
2023-04-02T08:40:07.326Z,102259.72
2023-04-02T08:43:03.863Z,102264.88
2023-04-02T08:45:44.212Z,102263.19
2023-04-02T08:48:12.837Z,102270.03
2023-04-02T08:50:41.355Z,102275.22
2023-04-02T08:53:16.749Z,102280.34
2023-04-02T08:56:17.750Z,102288.06
2023-04-02T08:58:50.994Z,102292.38
2023-04-02T09:01:51.831Z,102305.25
2023-04-02T09:04:25.162Z,102303.53
2023-04-02T09:06:54.996Z,102312.13
2023-04-02T09:09:22.580Z,102312.97
2023-04-02T09:11:51.855Z,102324.13
2023-04-02T09:14:29.454Z,102326.72
2023-04-02T09:17:01.026Z,102318.13
2023-04-02T09:19:36.543Z,102325.00
2023-04-02T09:22:21.498Z,102332.72
2023-04-02T09:24:57.224Z,102331.88
2023-04-02T09:27:26.317Z,102334.44
2023-04-02T09:30:20.437Z,102343.03
2023-04-02T09:32:53.927Z,102348.16
2023-04-02T09:35:26.561Z,102352.47
2023-04-02T09:38:12.517Z,102358.50
2023-04-02T09:40:55.164Z,102367.91
2023-04-02T09:43:23.804Z,102367.03
2023-04-02T09:46:02.494Z,102370.44
2023-04-02T09:48:43.922Z,102361.63
2023-04-02T09:51:17.029Z,102355.91
2023-04-02T09:53:47.124Z,102351.75
2023-04-02T09:56:24.245Z,102353.53
2023-04-02T09:59:12.252Z,102359.41
2023-04-02T10:01:41.968Z,102365.88
2023-04-02T10:04:46.748Z,102370.75
2023-04-02T10:07:36.946Z,102382.69
2023-04-02T10:10:18.449Z,102383.22
2023-04-02T10:13:07.476Z,102389.72
2023-04-02T10:15:42.246Z,102379.81
2023-04-02T10:18:14.782Z,102386.66
2023-04-02T10:20:51.076Z,102383.81
2023-04-02T10:23:19.007Z,102380.50
2023-04-02T10:25:54.384Z,102389.06
2023-04-02T10:28:55.135Z,102386.78
2023-04-02T10:31:26.232Z,102395.19
2023-04-02T10:34:04.150Z,102391.91
2023-04-02T10:36:54.342Z,102389.84
2023-04-02T10:39:36.830Z,102397.91
2023-04-02T10:42:24.163Z,102400.41
2023-04-02T10:45:04.525Z,102406.72
2023-04-02T10:47:38.005Z,102403.81
2023-04-02T10:50:26.117Z,102405.34
2023-04-02T10:53:11.430Z,102405.09
2023-04-02T10:55:43.642Z,102402.44
2023-04-02T10:58:29.029Z,102400.19
2023-04-02T11:01:01.871Z,102405.38
2023-04-02T11:03:36.893Z,102412.31
2023-04-02T11:06:17.114Z,102417.88
2023-04-02T11:08:47.253Z,102419.44
2023-04-02T11:11:21.363Z,102423.16
2023-04-02T11:13:53.759Z,102418.34
2023-04-02T11:16:21.042Z,102424.59
2023-04-02T11:19:15.484Z,102424.28
2023-04-02T11:22:06.883Z,102425.47
2023-04-02T11:24:38.140Z,102425.53
2023-04-02T11:27:33.634Z,102427.91
2023-04-02T11:30:25.627Z,102441.25
2023-04-02T11:32:52.245Z,102442.91
2023-04-02T11:35:31.190Z,102442.00
2023-04-02T11:38:06.263Z,102450.00
2023-04-02T11:40:51.044Z,102447.50
2023-04-02T11:43:32.456Z,102456.00
2023-04-02T11:46:24.840Z,102452.53
2023-04-02T11:48:51.597Z,102456.16
2023-04-02T11:51:22.275Z,102462.59
2023-04-02T11:53:54.296Z,102458.78
2023-04-02T11:56:48.089Z,102463.44
2023-04-02T11:59:20.545Z,102462.41
2023-04-02T12:02:05.270Z,102470.31
2023-04-02T12:04:58.093Z,102465.84
2023-04-02T12:07:51.923Z,102469.69
2023-04-02T12:10:23.742Z,102480.59
2023-04-02T12:12:50.922Z,102482.56
2023-04-02T12:15:27.001Z,102478.78
2023-04-02T12:17:53.737Z,102488.53
2023-04-02T12:20:31.521Z,102487.22
2023-04-02T12:22:58.552Z,102486.25
2023-04-02T12:25:34.441Z,102488.69
2023-04-02T12:28:29.062Z,102497.72
2023-04-02T12:31:09.134Z,102492.41
2023-04-02T12:33:40.611Z,102499.69
2023-04-02T12:36:27.882Z,102491.56
2023-04-02T12:38:57.112Z,102494.72
2023-04-02T12:41:29.993Z,102491.19
2023-04-02T12:44:04.863Z,102506.44
2023-04-02T12:46:33.589Z,102500.84
2023-04-02T12:49:37.722Z,102501.06
2023-04-02T12:52:28.452Z,102506.25
2023-04-02T12:55:03.771Z,102509.78
2023-04-02T12:57:30.141Z,102516.16
2023-04-02T12:59:57.859Z,102523.56
2023-04-02T13:02:26.954Z,102524.09
2023-04-02T13:05:01.400Z,102516.88
2023-04-02T13:07:33.422Z,102515.97
2023-04-02T13:10:03.440Z,102520.00
2023-04-02T13:12:40.137Z,102514.31
2023-04-02T13:15:23.432Z,102526.22
2023-04-02T13:18:22.575Z,102531.09
2023-04-02T13:21:00.316Z,102530.72
2023-04-02T13:23:29.619Z,102517.13
2023-04-02T13:25:57.352Z,102520.91
2023-04-02T13:28:23.973Z,102529.22
2023-04-02T13:30:50.628Z,102517.50
2023-04-02T13:33:17.308Z,102517.56
2023-04-02T13:35:44.544Z,102520.25
2023-04-02T13:38:11.202Z,102527.94
2023-04-02T13:40:38.583Z,102534.41
2023-04-02T13:43:06.432Z,102532.28
2023-04-02T13:45:36.513Z,102532.78
2023-04-02T13:48:03.831Z,102526.50
2023-04-02T13:50:32.922Z,102535.13
2023-04-02T13:53:04.310Z,102539.84
2023-04-02T13:55:35.337Z,102535.41
2023-04-02T13:58:01.741Z,102542.09
2023-04-02T14:00:28.160Z,102549.25
2023-04-02T14:03:05.649Z,102545.81
2023-04-02T14:05:47.035Z,102548.69
2023-04-02T14:08:22.654Z,102541.66
2023-04-02T14:11:23.317Z,102546.28
2023-04-02T14:14:11.176Z,102554.13
2023-04-02T14:17:05.561Z,102553.47
2023-04-02T14:19:43.745Z,102559.13
2023-04-02T14:22:22.379Z,102564.38
2023-04-02T14:25:14.213Z,102561.41
2023-04-02T14:28:29.753Z,102558.25
2023-04-02T14:31:09.259Z,102561.75
2023-04-02T14:33:54.606Z,102554.06
2023-04-02T14:36:42.717Z,102570.47
2023-04-02T14:39:18.228Z,102573.03
2023-04-02T14:42:03.983Z,102566.66
2023-04-02T14:44:40.339Z,102563.81
2023-04-02T14:47:29.203Z,102577.50
2023-04-02T14:50:28.024Z,102584.50
2023-04-02T14:52:59.661Z,102588.03
2023-04-02T14:55:56.285Z,102585.47
2023-04-02T14:58:28.753Z,102596.63
2023-04-02T15:01:00.519Z,102585.84
2023-04-02T15:03:42.939Z,102585.41
2023-04-02T15:06:19.434Z,102591.78
2023-04-02T15:09:02.113Z,102595.44
2023-04-02T15:11:44.936Z,102594.81
2023-04-02T15:14:27.934Z,102602.84
2023-04-02T15:16:54.364Z,102609.78
2023-04-02T15:19:20.830Z,102614.13
2023-04-02T15:22:24.428Z,102611.88
2023-04-02T15:25:28.183Z,102604.63
2023-04-02T15:28:07.361Z,102605.72
2023-04-02T15:30:36.318Z,102609.69
2023-04-02T15:33:37.942Z,102608.41
2023-04-02T15:36:26.628Z,102607.56
2023-04-02T15:39:07.725Z,102614.78
2023-04-02T15:42:03.878Z,102619.53
2023-04-02T15:44:30.457Z,102616.88
2023-04-02T15:47:19.942Z,102627.53
2023-04-02T15:49:46.264Z,102626.22
2023-04-02T15:52:22.069Z,102621.09
2023-04-02T15:55:16.356Z,102622.94
2023-04-02T15:57:58.070Z,102621.28
2023-04-02T16:00:32.578Z,102616.72
2023-04-02T16:03:17.278Z,102614.41
2023-04-02T16:05:55.686Z,102623.16
2023-04-02T16:08:57.633Z,102626.38
2023-04-02T16:11:25.994Z,102629.94
2023-04-02T16:14:14.539Z,102624.19
2023-04-02T16:16:42.432Z,102636.03
2023-04-02T16:19:20.751Z,102646.16
2023-04-02T16:22:03.451Z,102651.09
2023-04-02T16:24:29.863Z,102654.09
2023-04-02T16:27:14.988Z,102646.84
2023-04-02T16:29:55.018Z,102655.59
2023-04-02T16:32:31.018Z,102651.47
2023-04-02T16:37:54.088Z,102657.81
2023-04-02T16:40:23.453Z,102656.44
2023-04-02T16:43:19.919Z,102665.22
2023-04-02T16:46:01.818Z,102675.00
2023-04-02T16:48:37.019Z,102671.44
2023-04-02T16:51:04.189Z,102681.66
2023-04-02T16:53:51.125Z,102686.75
2023-04-02T16:56:41.160Z,102690.78
2023-04-02T16:59:19.749Z,102696.63
2023-04-02T17:02:23.762Z,102704.22
2023-04-02T17:05:00.669Z,102695.06
2023-04-02T17:07:51.438Z,102704.59
2023-04-02T17:10:53.449Z,102707.50
2023-04-02T17:13:39.696Z,102710.31
2023-04-02T17:16:21.891Z,102729.66
2023-04-02T17:18:52.434Z,102730.81
2023-04-02T17:21:23.953Z,102734.41
2023-04-02T17:24:19.354Z,102734.50
2023-04-02T17:26:49.781Z,102739.19
2023-04-02T17:29:21.767Z,102743.69
2023-04-02T17:31:50.338Z,102746.31
2023-04-02T17:34:18.601Z,102738.56
2023-04-02T17:36:58.927Z,102745.44
2023-04-02T17:40:05.402Z,102761.31
2023-04-02T17:42:50.230Z,102748.50
2023-04-02T17:45:19.639Z,102762.63
2023-04-02T17:48:01.270Z,102759.34
2023-04-02T17:50:48.643Z,102762.00
2023-04-02T17:53:28.841Z,102769.94
2023-04-02T17:56:18.699Z,102785.72
2023-04-02T17:59:12.241Z,102782.47
2023-04-02T18:02:07.424Z,102788.72
2023-04-02T18:04:50.686Z,102788.78
2023-04-02T18:07:29.050Z,102800.13
2023-04-02T18:09:58.449Z,102800.16
2023-04-02T18:12:31.894Z,102807.19
2023-04-02T18:15:33.618Z,102808.16
2023-04-02T18:18:15.672Z,102807.41
2023-04-02T18:20:51.915Z,102811.81
2023-04-02T18:23:25.601Z,102815.28
2023-04-02T18:25:57.936Z,102822.19
2023-04-02T18:28:37.314Z,102825.66
2023-04-02T18:31:16.668Z,102828.31
2023-04-02T18:34:19.685Z,102833.50
2023-04-02T18:37:33.045Z,102835.31
2023-04-02T18:40:19.805Z,102842.28
2023-04-02T18:43:06.876Z,102847.50
2023-04-02T18:45:51.637Z,102849.28
2023-04-02T18:48:30.981Z,102854.53
2023-04-02T18:51:00.412Z,102852.03
2023-04-02T18:53:31.357Z,102852.94
2023-04-02T18:56:02.576Z,102865.94
2023-04-02T18:58:46.213Z,102867.69
2023-04-02T19:01:18.396Z,102872.94
2023-04-02T19:04:02.723Z,102869.47
2023-04-02T19:06:38.859Z,102878.16
2023-04-02T19:09:16.864Z,102885.09
2023-04-02T19:11:43.412Z,102886.84
2023-04-02T19:14:13.329Z,102898.13
2023-04-02T19:17:10.516Z,102902.50
2023-04-02T19:19:52.400Z,102907.69
2023-04-02T19:22:33.421Z,102912.09
2023-04-02T19:25:10.713Z,102912.13
2023-04-02T19:27:51.432Z,102919.03
2023-04-02T19:30:56.008Z,102919.06
2023-04-02T19:33:52.365Z,102919.91
2023-04-02T19:36:21.448Z,102927.72
2023-04-02T19:38:56.583Z,102921.69
2023-04-02T19:41:48.066Z,102927.75
2023-04-02T19:44:16.281Z,102927.78
2023-04-02T19:46:43.387Z,102927.78
2023-04-02T19:49:16.637Z,102932.13
2023-04-02T19:51:44.009Z,102938.19
2023-04-02T19:54:10.725Z,102941.69
2023-04-02T19:56:37.186Z,102946.00
2023-04-02T19:59:17.102Z,102946.88
2023-04-02T20:01:45.159Z,102951.22
2023-04-02T20:04:11.634Z,102947.81
2023-04-02T20:06:38.193Z,102948.66
2023-04-02T20:09:04.602Z,102946.06
2023-04-02T20:11:31.287Z,102951.28
2023-04-02T20:13:57.712Z,102949.59
2023-04-02T20:16:24.205Z,102953.06
2023-04-02T20:18:51.346Z,102952.25
2023-04-02T20:21:17.991Z,102954.84
2023-04-02T20:23:44.766Z,102961.78
2023-04-02T20:26:12.689Z,102969.53
2023-04-02T20:28:39.397Z,102960.94
2023-04-02T20:31:14.482Z,102970.41
2023-04-02T20:33:41.978Z,102973.03
2023-04-02T20:36:14.925Z,102978.22
2023-04-02T20:38:41.672Z,102982.53
2023-04-02T20:41:09.116Z,102989.47
2023-04-02T20:43:37.467Z,102986.88
2023-04-02T20:46:06.518Z,102992.06
2023-04-02T20:48:36.372Z,102988.63
2023-04-02T20:51:05.254Z,102999.84
2023-04-02T20:53:34.389Z,103000.69
2023-04-02T20:56:15.654Z,103001.53
2023-04-02T20:58:43.119Z,102999.84
2023-04-02T21:01:19.223Z,103003.28
2023-04-02T21:03:45.816Z,103008.44
2023-04-02T21:06:23.857Z,103011.91
2023-04-02T21:08:51.122Z,103017.94
2023-04-02T21:11:18.751Z,103023.97
2023-04-02T21:13:45.646Z,103026.56
2023-04-02T21:16:23.352Z,103027.41
2023-04-02T21:18:52.504Z,103027.44
2023-04-02T21:21:21.075Z,103030.00
2023-04-02T21:23:47.959Z,103036.88
2023-04-02T21:26:16.983Z,103030.00
2023-04-02T21:28:45.175Z,103043.78
2023-04-02T21:31:17.844Z,103040.34
2023-04-02T21:33:52.469Z,103040.34
2023-04-02T21:36:27.619Z,103051.50
2023-04-02T21:38:56.878Z,103051.50
2023-04-02T21:41:26.505Z,103049.75
2023-04-02T21:43:54.413Z,103051.47
2023-04-02T21:46:23.583Z,103048.84
2023-04-02T21:48:51.341Z,103048.88
2023-04-02T21:51:23.373Z,103058.31
2023-04-02T21:53:50.880Z,103054.00
2023-04-02T21:56:19.863Z,103056.56
2023-04-02T21:58:47.568Z,103054.81
2023-04-02T22:01:26.711Z,103055.72
2023-04-02T22:03:55.362Z,103056.50
2023-04-02T22:06:23.586Z,103052.16
2023-04-02T22:08:59.169Z,103059.03
2023-04-02T22:11:31.748Z,103054.69
2023-04-02T22:13:58.970Z,103057.28
2023-04-02T22:16:28.131Z,103064.16
2023-04-02T22:18:58.640Z,103059.84
2023-04-02T22:21:26.288Z,103058.13
2023-04-02T22:23:52.878Z,103054.66
2023-04-02T22:26:21.490Z,103064.13
2023-04-02T22:28:47.926Z,103058.94
2023-04-02T22:31:17.147Z,103058.91
2023-04-02T22:33:45.818Z,103062.31
2023-04-02T22:36:13.576Z,103064.84
2023-04-02T22:38:40.792Z,103061.34
2023-04-02T22:41:11.898Z,103057.91
2023-04-02T22:43:39.234Z,103062.19
2023-04-02T22:46:06.814Z,103059.56
2023-04-02T22:48:33.766Z,103070.75
2023-04-02T22:51:00.487Z,103069.03
2023-04-02T22:53:27.390Z,103076.78
2023-04-02T22:55:55.771Z,103071.59
2023-04-02T22:58:22.607Z,103068.13
2023-04-02T23:00:49.113Z,103073.28
2023-04-02T23:03:15.547Z,103075.00
2023-04-02T23:05:42.592Z,103076.72
2023-04-02T23:08:09.230Z,103076.72
2023-04-02T23:10:36.067Z,103087.03
2023-04-02T23:13:02.745Z,103078.41
2023-04-02T23:15:29.132Z,103088.66
2023-04-02T23:17:55.648Z,103081.72
2023-04-02T23:20:22.175Z,103079.94
2023-04-02T23:22:48.696Z,103085.13
2023-04-02T23:25:15.242Z,103079.06
2023-04-02T23:27:41.804Z,103080.69
2023-04-02T23:30:08.701Z,103081.56
2023-04-02T23:32:35.434Z,103086.66
2023-04-02T23:35:01.935Z,103092.66
2023-04-02T23:37:28.356Z,103089.22
2023-04-02T23:39:54.805Z,103091.78
2023-04-02T23:42:21.290Z,103090.91
2023-04-02T23:44:47.697Z,103092.63
2023-04-02T23:47:14.119Z,103093.41
2023-04-02T23:49:42.128Z,103093.41
2023-04-02T23:52:08.626Z,103098.56
2023-04-02T23:54:35.207Z,103095.06
2023-04-02T23:57:01.694Z,103100.19
2023-04-02T23:59:28.178Z,103096.75
